createdAt,value
2019-03-28T00:01:34.420Z,99136.91
2019-03-28T00:06:37.726Z,99138.11
2019-03-28T00:11:41.028Z,99142.59
2019-03-28T00:16:44.323Z,99134.23
2019-03-28T00:21:47.615Z,99131.23
2019-03-28T00:26:50.937Z,99123.05
2019-03-28T00:31:54.211Z,99121.35
2019-03-28T00:36:57.510Z,99112.28
2019-03-28T00:42:00.793Z,99114.92
2019-03-28T00:47:04.100Z,99113.12
2019-03-28T00:52:07.391Z,99112.28
2019-03-28T00:57:10.680Z,99110.32
2019-03-28T01:02:13.986Z,99117.07
2019-03-28T01:07:17.293Z,99111.04
2019-03-28T01:12:20.600Z,99112.86
2019-03-28T01:17:23.890Z,99111.13
2019-03-28T01:22:27.201Z,99110.19
2019-03-28T01:27:30.496Z,99116.30
2019-03-28T01:32:33.793Z,99110.27
2019-03-28T01:37:37.093Z,99115.47
2019-03-28T01:42:40.395Z,99116.36
2019-03-28T01:47:43.698Z,99104.66
2019-03-28T01:52:47.362Z,99106.03
2019-03-28T01:57:50.757Z,99103.89
2019-03-28T02:02:54.048Z,99107.37
2019-03-28T02:07:57.356Z,99103.08
2019-03-28T02:13:00.652Z,99092.23
2019-03-28T02:18:03.960Z,99096.16
2019-03-28T02:23:07.245Z,99095.75
2019-03-28T02:28:10.537Z,99102.23
2019-03-28T02:33:13.834Z,99104.82
2019-03-28T02:38:17.129Z,99106.97
2019-03-28T02:43:20.443Z,99116.48
2019-03-28T02:48:23.742Z,99114.34
2019-03-28T02:53:27.035Z,99104.86
2019-03-28T02:58:30.652Z,99109.59
2019-03-28T03:03:33.880Z,99101.83
2019-03-28T03:08:37.169Z,99101.83
2019-03-28T03:13:40.481Z,99110.64
2019-03-28T03:18:43.851Z,99104.57
2019-03-28T03:23:47.157Z,99104.98
2019-03-28T03:28:50.450Z,99107.97
2019-03-28T03:33:53.737Z,99113.60
2019-03-28T03:38:57.046Z,99115.82
2019-03-28T03:44:00.374Z,99112.75
2019-03-28T03:49:04.769Z,99117.94
2019-03-28T03:54:08.144Z,99121.92
2019-03-28T03:59:11.781Z,99117.25
2019-03-28T04:04:15.223Z,99115.92
2019-03-28T04:09:18.512Z,99123.19
2019-03-28T04:14:21.836Z,99133.06
2019-03-28T04:19:25.132Z,99128.30
2019-03-28T04:24:28.425Z,99132.22
2019-03-28T04:29:31.722Z,99133.06
2019-03-28T04:34:35.142Z,99127.00
2019-03-28T04:39:38.397Z,99128.70
2019-03-28T04:44:41.708Z,99133.51
2019-03-28T04:49:45.018Z,99133.20
2019-03-28T04:54:48.308Z,99130.22
2019-03-28T04:59:51.604Z,99132.28
2019-03-28T05:04:54.913Z,99131.08
2019-03-28T05:09:58.218Z,99128.05
2019-03-28T05:15:01.508Z,99129.78
2019-03-28T05:20:06.846Z,99142.31
2019-03-28T05:25:10.207Z,99147.94
2019-03-28T05:30:14.335Z,99149.28
2019-03-28T05:35:17.630Z,99151.33
2019-03-28T05:40:22.762Z,99148.20
2019-03-28T05:45:25.930Z,99157.23
2019-03-28T05:50:29.227Z,99158.02
2019-03-28T05:55:32.521Z,99170.05
2019-03-28T06:00:38.935Z,99167.83
2019-03-28T06:05:40.840Z,99171.19
2019-03-28T06:10:44.140Z,99174.11
2019-03-28T06:15:47.430Z,99175.76
2019-03-28T06:20:50.721Z,99169.97
2019-03-28T06:25:54.086Z,99177.01
2019-03-28T06:30:57.425Z,99177.91
2019-03-28T06:36:02.207Z,99173.92
2019-03-28T06:57:10.201Z,99180.63
2019-03-28T07:02:13.520Z,99184.23
2019-03-28T07:07:18.436Z,99179.86
2019-03-28T07:12:21.887Z,99180.76
2019-03-28T07:17:26.405Z,99173.59
2019-03-28T07:22:29.730Z,99175.27
2019-03-28T07:27:40.705Z,99171.23
2019-03-28T07:32:43.964Z,99173.44
2019-03-28T07:37:47.259Z,99175.61
2019-03-28T07:42:50.549Z,99178.65
2019-03-28T07:47:53.843Z,99180.00
2019-03-28T07:52:57.224Z,99175.84
2019-03-28T07:58:00.526Z,99171.66
2019-03-28T08:03:03.845Z,99177.00
2019-03-28T08:08:07.208Z,99174.36
2019-03-28T08:13:10.583Z,99177.17
2019-03-28T08:18:13.871Z,99180.88
2019-03-28T08:23:17.183Z,99183.41
2019-03-28T08:28:20.476Z,99180.50
2019-03-28T08:33:23.771Z,99172.67
2019-03-28T08:38:27.063Z,99186.43
2019-03-28T08:43:30.361Z,99179.84
2019-03-28T08:48:33.656Z,99184.02
2019-03-28T08:53:36.950Z,99191.28
2019-03-28T08:58:40.251Z,99192.10
2019-03-28T09:03:43.540Z,99186.20
2019-03-28T09:08:46.830Z,99176.70
2019-03-28T09:13:50.140Z,99170.92
2019-03-28T09:18:53.473Z,99177.18
2019-03-28T09:23:56.772Z,99171.73
2019-03-28T09:29:00.060Z,99172.31
2019-03-28T09:34:03.360Z,99162.80
2019-03-28T09:39:07.898Z,99162.55
2019-03-28T09:44:11.197Z,99164.76
2019-03-28T09:49:14.500Z,99164.29
2019-03-28T09:54:17.798Z,99164.66
2019-03-28T09:59:21.095Z,99166.95
2019-03-28T10:04:24.389Z,99163.03
2019-03-28T10:09:27.697Z,99158.88
2019-03-28T10:14:31.002Z,99154.87
2019-03-28T10:19:34.305Z,99159.05
2019-03-28T10:24:37.599Z,99154.17
2019-03-28T10:29:40.943Z,99148.77
2019-03-28T10:34:44.237Z,99143.84
2019-03-28T10:39:47.581Z,99147.89
2019-03-28T10:44:50.915Z,99143.80
2019-03-28T10:49:54.252Z,99146.16
2019-03-28T10:54:57.579Z,99132.33
2019-03-28T11:00:00.928Z,99141.89
2019-03-28T11:05:05.405Z,99139.65
2019-03-28T11:10:08.923Z,99145.93
2019-03-28T11:15:12.404Z,99146.63
2019-03-28T11:20:16.004Z,99139.27
2019-03-28T11:25:19.340Z,99143.57
2019-03-28T11:30:22.755Z,99142.77
2019-03-28T11:35:26.092Z,99140.98
2019-03-28T11:40:29.457Z,99144.51
2019-03-28T11:45:32.796Z,99139.08
2019-03-28T11:50:36.152Z,99134.76
2019-03-28T11:55:39.480Z,99137.47
2019-03-28T12:00:42.824Z,99140.43
2019-03-28T12:05:46.161Z,99139.44
2019-03-28T12:10:49.494Z,99135.50
2019-03-28T12:15:52.822Z,99130.02
2019-03-28T12:20:56.243Z,99125.23
2019-03-28T12:25:59.630Z,99123.94
2019-03-28T12:31:02.971Z,99119.75
2019-03-28T12:36:06.306Z,99120.95
2019-03-28T12:41:09.643Z,99115.26
2019-03-28T12:46:12.975Z,99107.32
2019-03-28T12:51:16.310Z,99109.45
2019-03-28T12:56:19.664Z,99114.23
2019-03-28T13:01:23.072Z,99104.91
2019-03-28T13:06:26.419Z,99103.31
2019-03-28T13:11:29.756Z,99097.20
2019-03-28T13:16:33.093Z,99092.86
2019-03-28T13:21:36.431Z,99097.25
2019-03-28T13:26:39.772Z,99095.50
2019-03-28T13:31:43.114Z,99090.13
2019-03-28T13:36:46.446Z,99086.02
2019-03-28T13:41:49.786Z,99082.14
2019-03-28T13:46:53.124Z,99075.42
2019-03-28T13:51:56.468Z,99077.59
2019-03-28T13:56:59.801Z,99081.23
2019-03-28T14:02:03.151Z,99081.50
2019-03-28T14:07:06.473Z,99078.25
2019-03-28T14:12:09.814Z,99081.79
2019-03-28T14:17:13.150Z,99076.51
2019-03-28T14:22:18.133Z,99079.13
2019-03-28T14:27:21.717Z,99071.94
2019-03-28T14:32:25.070Z,99071.94
2019-03-28T14:37:28.494Z,99070.77
2019-03-28T14:42:31.837Z,99067.12
2019-03-28T14:47:35.236Z,99069.58
2019-03-28T14:52:38.548Z,99070.94
2019-03-28T14:57:41.863Z,99070.17
2019-03-28T15:02:45.202Z,99070.98
2019-03-28T15:07:48.548Z,99062.61
2019-03-28T15:12:51.896Z,99066.62
2019-03-28T15:17:55.234Z,99065.14
2019-03-28T15:22:58.682Z,99067.27
2019-03-28T15:28:02.040Z,99067.81
2019-03-28T15:33:05.385Z,99067.39
2019-03-28T15:38:08.805Z,99068.14
2019-03-28T15:43:12.232Z,99062.36
2019-03-28T15:48:15.586Z,99064.42
2019-03-28T15:53:19.251Z,99064.77
2019-03-28T15:58:23.840Z,99066.53
2019-03-28T16:03:27.348Z,99058.97
2019-03-28T16:08:30.722Z,99063.67
2019-03-28T16:13:37.313Z,99058.94
2019-03-28T16:18:39.621Z,99054.38
2019-03-28T16:23:43.107Z,99068.15
2019-03-28T16:28:46.537Z,99064.84
2019-03-28T16:33:49.938Z,99061.45
2019-03-28T16:38:53.291Z,99066.09
2019-03-28T16:43:56.644Z,99073.05
2019-03-28T16:49:00.008Z,99076.06
2019-03-28T16:54:03.363Z,99081.61
2019-03-28T16:59:06.722Z,99082.58
2019-03-28T17:04:20.035Z,99080.66
2019-03-28T17:09:15.231Z,99085.94
2019-03-28T17:14:18.595Z,99087.48
2019-03-28T17:19:22.952Z,99093.55
2019-03-28T17:24:26.497Z,99089.20
2019-03-28T17:29:29.850Z,99099.09
2019-03-28T17:34:36.279Z,99099.77
2019-03-28T17:39:38.282Z,99100.41
2019-03-28T17:44:41.710Z,99095.64
2019-03-28T17:49:45.118Z,99111.91
2019-03-28T17:54:48.481Z,99108.27
2019-03-28T17:59:51.833Z,99114.38
2019-03-28T18:05:08.250Z,99116.72
2019-03-28T18:10:00.392Z,99118.52
2019-03-28T18:15:04.688Z,99113.46
2019-03-28T18:20:08.391Z,99121.38
2019-03-28T18:25:12.080Z,99130.27
2019-03-28T18:30:18.006Z,99135.98
2019-03-28T18:35:21.411Z,99136.69
2019-03-28T18:40:25.763Z,99141.06
2019-03-28T18:45:29.105Z,99143.81
2019-03-28T18:50:32.593Z,99144.89
2019-03-28T18:55:35.918Z,99147.66
2019-03-28T19:00:39.277Z,99150.38
2019-03-28T19:05:42.660Z,99155.27
2019-03-28T19:10:46.075Z,99159.25
2019-03-28T19:15:49.949Z,99164.80
2019-03-28T19:20:53.470Z,99168.85
2019-03-28T19:25:56.826Z,99160.16
2019-03-28T19:31:00.225Z,99165.88
2019-03-28T19:36:03.617Z,99166.88
2019-03-28T19:41:07.909Z,99163.03
2019-03-28T19:46:12.900Z,99161.03
2019-03-28T19:51:16.661Z,99159.75
2019-03-28T19:56:20.986Z,99162.06
2019-03-28T20:01:24.836Z,99163.77
2019-03-28T20:06:28.262Z,99164.30
2019-03-28T20:11:32.134Z,99163.91
2019-03-28T20:16:36.701Z,99167.86
2019-03-28T20:21:40.231Z,99161.12
2019-03-28T20:26:45.696Z,99168.86
2019-03-28T20:31:49.413Z,99169.95
2019-03-28T20:36:53.432Z,99166.43
2019-03-28T20:41:56.944Z,99167.88
2019-03-28T20:47:00.611Z,99169.70
2019-03-28T20:52:04.203Z,99168.52
2019-03-28T20:57:07.651Z,99180.51
2019-03-28T21:02:11.459Z,99188.98
2019-03-28T21:07:15.367Z,99185.34
2019-03-28T21:12:18.841Z,99189.36
2019-03-28T21:17:22.426Z,99192.08
2019-03-28T21:22:25.782Z,99188.05
2019-03-28T21:27:29.567Z,99192.19
2019-03-28T21:32:32.953Z,99189.78
2019-03-28T21:37:36.279Z,99186.13
2019-03-28T21:42:39.594Z,99187.23
2019-03-28T21:47:43.267Z,99195.73
2019-03-28T21:52:46.577Z,99198.98
2019-03-28T21:57:49.881Z,99196.03
2019-03-28T22:02:53.792Z,99198.70
2019-03-28T22:07:57.289Z,99206.71
2019-03-28T22:13:00.940Z,99206.90
2019-03-28T22:18:04.397Z,99203.50
2019-03-28T22:23:08.617Z,99204.98
2019-03-28T22:28:11.972Z,99202.09
2019-03-28T22:33:15.895Z,99197.42
2019-03-28T22:38:20.899Z,99193.20
2019-03-28T22:43:24.485Z,99181.69
2019-03-28T22:48:27.774Z,99188.88
2019-03-28T22:53:32.900Z,99186.44
2019-03-28T22:58:36.170Z,99181.01
2019-03-28T23:03:39.457Z,99184.22
2019-03-28T23:08:42.749Z,99185.68
2019-03-28T23:13:46.050Z,99188.36
2019-03-28T23:18:49.341Z,99184.14
2019-03-28T23:23:52.629Z,99177.32
2019-03-28T23:28:55.927Z,99179.59
2019-03-28T23:33:59.215Z,99175.82
2019-03-28T23:39:02.511Z,99185.02
2019-03-28T23:44:05.803Z,99188.79
2019-03-28T23:49:09.095Z,99195.13
2019-03-28T23:54:12.460Z,99187.69
2019-03-28T23:59:15.755Z,99177.12
